| time (UTC) | temp F | wind direction | speed MPH | gust MPH | rain 1hr in | rain 24hr in | rain mn in | humidity % | barometer mb |
| 20260906233322 | 62 | 36 | 0.0 | 1.0 | 0.00 | 0.00 | 0.06 | 77 | 1019.0 |
| 20260906232822 | 62 | 66 | 0.0 | 0.0 | 0.00 | 0.00 | 0.06 | 76 | 1019.0 |
| 20260906232322 | 61 | 49 | 1.0 | 4.0 | 0.00 | 0.00 | 0.06 | 77 | 1019.0 |
| 20260906231823 | 61 | 206 | 3.0 | 3.0 | 0.00 | 0.00 | 0.06 | 76 | 1019.0 |
| 20260906231322 | 62 | 15 | 1.0 | 3.0 | 0.00 | 0.00 | 0.06 | 76 | 1019.0 |
| 20260906230822 | 62 | 161 | 2.0 | 5.0 | 0.00 | 0.00 | 0.06 | 76 | 1019.0 |
| 20260906230323 | 61 | 21 | 0.0 | 0.0 | 0.00 | 0.00 | 0.06 | 79 | 1019.0 |
| 20260906225823 | 61 | 347 | 0.0 | 0.0 | 0.00 | 0.00 | 0.06 | 80 | 1019.0 |
| 20260906225322 | 61 | 25 | 0.0 | 0.0 | 0.00 | 0.00 | 0.06 | 81 | 1019.0 |
| 20260906224822 | 60 | 15 | 0.0 | 0.0 | 0.00 | 0.00 | 0.06 | 81 | 1019.0 |
| 20260906224322 | 60 | 147 | 2.0 | 2.0 | 0.00 | 0.00 | 0.06 | 82 | 1019.0 |
| 20260906223822 | 60 | 56 | 0.0 | 0.0 | 0.00 | 0.00 | 0.06 | 83 | 1019.0 |
| 20260906223322 | 60 | 52 | 0.0 | 0.0 | 0.00 | 0.00 | 0.06 | 83 | 1019.0 |
| 20260906222822 | 59 | 25 | 0.0 | 0.0 | 0.00 | 0.00 | 0.06 | 83 | 1019.0 |
| 20260906222322 | 60 | 46 | 1.0 | 2.0 | 0.00 | 0.00 | 0.06 | 81 | 1019.0 |
| 20260906221823 | 60 | 22 | 0.0 | 0.0 | 0.00 | 0.00 | 0.06 | 81 | 1019.0 |
| 20260906221322 | 60 | 26 | 0.0 | 0.0 | 0.00 | 0.00 | 0.06 | 81 | 1019.0 |
| 20260906220822 | 60 | 129 | 0.0 | 0.0 | 0.00 | 0.00 | 0.06 | 82 | 1019.0 |
| 20260906220322 | 60 | 26 | 0.0 | 0.0 | 0.00 | 0.00 | 0.06 | 81 | 1019.0 |
| 20260906215822 | 60 | 178 | 1.0 | 1.0 | 0.00 | 0.00 | 0.06 | 83 | 1019.0 |
| 20260906215322 | 60 | 223 | 3.0 | 3.0 | 0.00 | 0.00 | 0.06 | 82 | 1019.0 |
| 20260906214822 | 60 | 317 | 0.0 | 0.0 | 0.00 | 0.00 | 0.06 | 83 | 1019.0 |
| 20260906214322 | 59 | 355 | 1.0 | 1.0 | 0.00 | 0.00 | 0.06 | 84 | 1019.0 |
| 20260906213822 | 59 | 41 | 0.0 | 0.0 | 0.00 | 0.00 | 0.06 | 84 | 1019.0 |
| 20260906213322 | 59 | 31 | 0.0 | 0.0 | 0.00 | 0.00 | 0.06 | 84 | 1020.0 |
| 20260906212823 | 59 | 147 | 0.0 | 0.0 | 0.00 | 0.00 | 0.06 | 85 | 1020.0 |
| 20260906212323 | 58 | 170 | 2.0 | 2.0 | 0.00 | 0.00 | 0.06 | 86 | 1020.0 |
| 20260906211822 | 58 | 196 | 0.0 | 0.0 | 0.00 | 0.00 | 0.06 | 87 | 1019.0 |
| 20260906211322 | 58 | 330 | 0.0 | 0.0 | 0.00 | 0.00 | 0.06 | 87 | 1019.0 |
| 20260906210822 | 58 | 298 | 0.0 | 0.0 | 0.00 | 0.00 | 0.06 | 87 | 1020.0 |
| 20260906210322 | 57 | 11 | 0.0 | 0.0 | 0.00 | 0.00 | 0.06 | 87 | 1020.0 |
| 20260906205822 | 57 | 7 | 0.0 | 0.0 | 0.00 | 0.00 | 0.06 | 88 | 1020.0 |
| 20260906205322 | 57 | 303 | 1.0 | 1.0 | 0.00 | 0.00 | 0.06 | 88 | 1020.0 |
| 20260906204823 | 57 | 330 | 0.0 | 0.0 | 0.00 | 0.00 | 0.06 | 89 | 1020.0 |
| 20260906204322 | 57 | 323 | 0.0 | 0.0 | 0.00 | 0.00 | 0.06 | 89 | 1020.0 |
| 20260906203822 | 57 | 12 | 0.0 | 2.0 | 0.00 | 0.00 | 0.06 | 89 | 1020.0 |
| 20260906203322 | 57 | 317 | 2.0 | 2.0 | 0.00 | 0.00 | 0.06 | 89 | 1020.0 |
| 20260906202822 | 57 | 221 | 2.0 | 3.0 | 0.00 | 0.00 | 0.06 | 88 | 1020.0 |
| 20260906202322 | 57 | 301 | 0.0 | 0.0 | 0.00 | 0.00 | 0.06 | 89 | 1020.0 |
| 20260906201823 | 57 | 253 | 2.0 | 3.0 | 0.00 | 0.00 | 0.06 | 89 | 1020.0 |
| 20260906201323 | 57 | 356 | 0.0 | 0.0 | 0.00 | 0.00 | 0.06 | 90 | 1020.0 |
| 20260906200822 | 57 | 351 | 0.0 | 0.0 | 0.00 | 0.00 | 0.06 | 91 | 1020.0 |
| 20260906200322 | 57 | 51 | 0.0 | 0.0 | 0.00 | 0.00 | 0.06 | 91 | 1020.0 |
| 20260906195822 | 57 | 18 | 0.0 | 0.0 | 0.00 | 0.00 | 0.06 | 92 | 1020.0 |
| 20260906195322 | 56 | 258 | 1.0 | 1.0 | 0.00 | 0.00 | 0.06 | 92 | 1020.0 |
| 20260906194822 | 56 | 170 | 3.0 | 4.0 | 0.00 | 0.00 | 0.06 | 92 | 1020.0 |
| 20260906194322 | 56 | 258 | 3.0 | 3.0 | 0.00 | 0.00 | 0.06 | 93 | 1020.0 |
| 20260906193822 | 56 | 287 | 1.0 | 2.0 | 0.00 | 0.00 | 0.06 | 93 | 1020.0 |
| 20260906193322 | 55 | 70 | 1.0 | 2.0 | 0.00 | 0.00 | 0.06 | 94 | 1020.0 |
| 20260906192822 | 55 | 226 | 0.0 | 0.0 | 0.00 | 0.00 | 0.06 | 94 | 1020.0 |
| 20260906192325 | 55 | 130 | 2.0 | 2.0 | 0.00 | 0.00 | 0.06 | 94 | 1020.0 |
| 20260906191822 | 55 | 353 | 0.0 | 0.0 | 0.00 | 0.00 | 0.06 | 95 | 1020.0 |
| 20260906191322 | 55 | 17 | 0.0 | 0.0 | 0.00 | 0.00 | 0.06 | 95 | 1020.0 |
| 20260906190822 | 55 | 321 | 0.0 | 0.0 | 0.00 | 0.00 | 0.06 | 95 | 1020.0 |
| 20260906190322 | 54 | 30 | 0.0 | 0.0 | 0.00 | 0.00 | 0.06 | 95 | 1020.0 |
| 20260906185823 | 54 | 133 | 0.0 | 0.0 | 0.00 | 0.00 | 0.06 | 95 | 1020.0 |
| 20260906185322 | 54 | 27 | 0.0 | 0.0 | 0.00 | 0.00 | 0.06 | 95 | 1020.0 |
| 20260906184822 | 54 | 71 | 0.0 | 0.0 | 0.00 | 0.00 | 0.06 | 95 | 1020.0 |
| 20260906184322 | 54 | 5 | 0.0 | 0.0 | 0.01 | 0.00 | 0.06 | 95 | 1020.0 |
| 20260906183822 | 53 | 27 | 0.0 | 0.0 | 0.01 | 0.00 | 0.06 | 95 | 1021.0 |
| 20260906183322 | 53 | 45 | 0.0 | 1.0 | 0.01 | 0.00 | 0.06 | 95 | 1021.0 |
| 20260906182822 | 53 | 27 | 0.0 | 0.0 | 0.01 | 0.00 | 0.06 | 95 | 1021.0 |
| 20260906182323 | 53 | 26 | 0.0 | 0.0 | 0.01 | 0.00 | 0.06 | 95 | 1021.0 |
| 20260906181822 | 53 | 48 | 0.0 | 0.0 | 0.01 | 0.00 | 0.06 | 95 | 1021.0 |
| 20260906181323 | 53 | 148 | 0.0 | 0.0 | 0.01 | 0.00 | 0.06 | 95 | 1021.0 |
| 20260906180823 | 53 | 18 | 0.0 | 0.0 | 0.01 | 0.00 | 0.06 | 95 | 1021.0 |
| 20260906180323 | 53 | 29 | 0.0 | 1.0 | 0.01 | 0.00 | 0.06 | 95 | 1021.0 |
| 20260906175824 | 52 | 25 | 0.0 | 0.0 | 0.01 | 0.00 | 0.06 | 95 | 1021.0 |
| 20260906175322 | 52 | 30 | 0.0 | 0.0 | 0.01 | 0.00 | 0.06 | 95 | 1021.0 |
| 20260906174822 | 52 | 18 | 0.0 | 0.0 | 0.00 | 0.00 | 0.05 | 95 | 1021.0 |
| 20260906174322 | 52 | 13 | 0.0 | 0.0 | 0.00 | 0.00 | 0.05 | 95 | 1021.0 |
| 20260906173824 | 52 | 43 | 2.0 | 2.0 | 0.00 | 0.00 | 0.05 | 94 | 1021.0 |
| 20260906173322 | 52 | 358 | 0.0 | 0.0 | 0.00 | 0.00 | 0.05 | 95 | 1021.0 |
| 20260906172822 | 52 | 42 | 0.0 | 0.0 | 0.00 | 0.00 | 0.05 | 95 | 1021.0 |
| 20260906172323 | 52 | 33 | 0.0 | 0.0 | 0.00 | 0.00 | 0.05 | 95 | 1021.0 |
| 20260906171823 | 51 | 32 | 0.0 | 0.0 | 0.00 | 0.00 | 0.05 | 94 | 1021.0 |
| 20260906171322 | 52 | 28 | 0.0 | 0.0 | 0.00 | 0.00 | 0.05 | 95 | 1021.0 |
| 20260906170822 | 51 | 9 | 0.0 | 0.0 | 0.00 | 0.00 | 0.05 | 95 | 1021.0 |
| 20260906170322 | 51 | 23 | 0.0 | 0.0 | 0.00 | 0.00 | 0.05 | 95 | 1021.0 |
| 20260906165821 | 51 | 32 | 0.0 | 0.0 | 0.00 | 0.00 | 0.05 | 95 | 1021.0 |
| 20260906165322 | 51 | 14 | 0.0 | 0.0 | 0.00 | 0.00 | 0.05 | 95 | 1021.0 |
| 20260906164823 | 51 | 4 | 0.0 | 0.0 | 0.00 | 0.00 | 0.05 | 95 | 1021.0 |
| 20260906164322 | 51 | 16 | 0.0 | 0.0 | 0.00 | 0.00 | 0.05 | 95 | 1022.0 |
| 20260906163822 | 51 | 357 | 0.0 | 0.0 | 0.00 | 0.00 | 0.05 | 95 | 1022.0 |
| 20260906163322 | 51 | 351 | 0.0 | 0.0 | 0.01 | 0.00 | 0.05 | 95 | 1022.0 |
| 20260906162822 | 51 | 7 | 0.0 | 0.0 | 0.01 | 0.00 | 0.05 | 95 | 1022.0 |
| 20260906162322 | 50 | 12 | 0.0 | 0.0 | 0.01 | 0.00 | 0.05 | 95 | 1022.0 |
| 20260906161822 | 50 | 24 | 0.0 | 0.0 | 0.01 | 0.00 | 0.05 | 95 | 1022.0 |
| 20260906161322 | 50 | 29 | 0.0 | 0.0 | 0.01 | 0.00 | 0.05 | 95 | 1022.0 |
| 20260906160822 | 50 | 28 | 0.0 | 0.0 | 0.01 | 0.00 | 0.05 | 95 | 1022.0 |
| 20260906160322 | 50 | 28 | 0.0 | 0.0 | 0.01 | 0.00 | 0.05 | 95 | 1022.0 |
| 20260906155822 | 50 | 18 | 0.0 | 0.0 | 0.01 | 0.00 | 0.05 | 95 | 1022.0 |
| 20260906155322 | 50 | 22 | 0.0 | 0.0 | 0.01 | 0.00 | 0.05 | 95 | 1022.0 |
| 20260906154822 | 50 | 21 | 0.0 | 0.0 | 0.01 | 0.00 | 0.05 | 95 | 1022.0 |
| 20260906154322 | 50 | 19 | 0.0 | 0.0 | 0.01 | 0.00 | 0.05 | 95 | 1022.0 |
| 20260906153822 | 50 | 9 | 0.0 | 0.0 | 0.00 | 0.00 | 0.04 | 95 | 1022.0 |
| 20260906153322 | 50 | 26 | 0.0 | 0.0 | 0.00 | 0.00 | 0.04 | 95 | 1022.0 |
| 20260906152822 | 49 | 23 | 0.0 | 0.0 | 0.00 | 0.00 | 0.04 | 95 | 1022.0 |
| 20260906152322 | 49 | 20 | 0.0 | 0.0 | 0.00 | 0.00 | 0.04 | 95 | 1022.0 |
| 20260906151822 | 49 | 359 | 0.0 | 0.0 | 0.00 | 0.00 | 0.04 | 95 | 1022.0 |
| 20260906151322 | 49 | 358 | 0.0 | 0.0 | 0.00 | 0.00 | 0.04 | 95 | 1022.0 |
| 20260906150823 | 49 | 25 | 0.0 | 0.0 | 0.00 | 0.00 | 0.04 | 95 | 1022.0 |
| 20260906150322 | 49 | 347 | 0.0 | 0.0 | 0.00 | 0.00 | 0.04 | 95 | 1021.0 |
| 20260906145823 | 49 | 14 | 0.0 | 0.0 | 0.00 | 0.00 | 0.04 | 95 | 1021.0 |
| 20260906145322 | 49 | 8 | 0.0 | 0.0 | 0.00 | 0.00 | 0.04 | 95 | 1022.0 |
| 20260906144822 | 49 | 352 | 0.0 | 0.0 | 0.00 | 0.00 | 0.04 | 95 | 1022.0 |
| 20260906144322 | 49 | 9 | 0.0 | 0.0 | 0.00 | 0.00 | 0.04 | 95 | 1022.0 |
| 20260906143824 | 49 | 340 | 0.0 | 0.0 | 0.00 | 0.00 | 0.04 | 95 | 1022.0 |
| 20260906143322 | 49 | 9 | 0.0 | 0.0 | 0.00 | 0.00 | 0.04 | 95 | 1022.0 |
| 20260906142823 | 49 | 45 | 0.0 | 0.0 | 0.00 | 0.00 | 0.04 | 95 | 1022.0 |
| 20260906142322 | 49 | 12 | 0.0 | 0.0 | 0.00 | 0.00 | 0.04 | 95 | 1022.0 |
| 20260906141823 | 49 | 30 | 0.0 | 0.0 | 0.00 | 0.00 | 0.04 | 95 | 1022.0 |
| 20260906141322 | 48 | 26 | 0.0 | 0.0 | 0.00 | 0.00 | 0.04 | 95 | 1022.0 |
| 20260906140823 | 48 | 12 | 0.0 | 0.0 | 0.00 | 0.00 | 0.04 | 95 | 1022.0 |
| 20260906140322 | 48 | 355 | 0.0 | 0.0 | 0.00 | 0.00 | 0.04 | 95 | 1022.0 |
| 20260906135822 | 48 | 341 | 0.0 | 0.0 | 0.00 | 0.00 | 0.04 | 95 | 1022.0 |
| 20260906135322 | 48 | 333 | 0.0 | 0.0 | 0.00 | 0.00 | 0.04 | 95 | 1022.0 |
| 20260906134822 | 48 | 20 | 0.0 | 0.0 | 0.00 | 0.00 | 0.04 | 95 | 1022.0 |
| 20260906134323 | 48 | 356 | 0.0 | 0.0 | 0.00 | 0.00 | 0.04 | 95 | 1022.0 |
| 20260906133822 | 48 | 335 | 0.0 | 0.0 | 0.00 | 0.00 | 0.04 | 95 | 1022.0 |
| 20260906133324 | 48 | 309 | 0.0 | 3.0 | 0.00 | 0.00 | 0.04 | 95 | 1022.0 |
| 20260906132822 | 48 | 313 | 0.0 | 0.0 | 0.00 | 0.00 | 0.04 | 95 | 1022.0 |
| 20260906132323 | 48 | 321 | 0.0 | 1.0 | 0.00 | 0.00 | 0.04 | 95 | 1022.0 |
| 20260906131822 | 48 | 13 | 0.0 | 0.0 | 0.00 | 0.00 | 0.04 | 95 | 1022.0 |
| 20260906131322 | 48 | 17 | 0.0 | 0.0 | 0.01 | 0.00 | 0.04 | 95 | 1022.0 |
| 20260906130822 | 48 | 43 | 0.0 | 0.0 | 0.01 | 0.00 | 0.04 | 95 | 1022.0 |
| 20260906130322 | 48 | 27 | 0.0 | 0.0 | 0.02 | 0.00 | 0.04 | 95 | 1022.0 |
| 20260906125822 | 48 | 81 | 0.0 | 0.0 | 0.02 | 0.00 | 0.04 | 94 | 1022.0 |
| 20260906125322 | 48 | 357 | 0.0 | 0.0 | 0.02 | 0.00 | 0.04 | 94 | 1022.0 |
| 20260906124822 | 48 | 5 | 0.0 | 0.0 | 0.02 | 0.00 | 0.04 | 94 | 1022.0 |
| 20260906124322 | 48 | 19 | 0.0 | 0.0 | 0.02 | 0.00 | 0.04 | 95 | 1022.0 |
| 20260906123823 | 48 | 17 | 0.0 | 0.0 | 0.02 | 0.00 | 0.04 | 94 | 1022.0 |
| 20260906123322 | 48 | 16 | 0.0 | 0.0 | 0.03 | 0.00 | 0.04 | 94 | 1022.0 |
| 20260906122822 | 48 | 17 | 0.0 | 0.0 | 0.03 | 0.00 | 0.04 | 95 | 1022.0 |
| 20260906122322 | 48 | 27 | 0.0 | 0.0 | 0.02 | 0.00 | 0.03 | 94 | 1023.0 |
| 20260906121822 | 48 | 34 | 0.0 | 0.0 | 0.02 | 0.00 | 0.03 | 94 | 1022.0 |
| 20260906121323 | 48 | 14 | 0.0 | 0.0 | 0.02 | 0.00 | 0.03 | 94 | 1022.0 |
| 20260906120822 | 48 | 290 | 0.0 | 0.0 | 0.01 | 0.00 | 0.02 | 94 | 1023.0 |
| 20260906120323 | 48 | 293 | 3.0 | 3.0 | 0.01 | 0.00 | 0.02 | 94 | 1022.0 |
| 20260906115823 | 48 | 9 | 0.0 | 0.0 | 0.01 | 0.00 | 0.02 | 94 | 1023.0 |
| 20260906115322 | 48 | 359 | 0.0 | 0.0 | 0.01 | 0.00 | 0.02 | 94 | 1023.0 |
| 20260906114822 | 48 | 355 | 0.0 | 0.0 | 0.01 | 0.00 | 0.02 | 94 | 1023.0 |
| 20260906114322 | 48 | 28 | 0.0 | 0.0 | 0.02 | 0.00 | 0.02 | 94 | 1023.0 |
| 20260906113823 | 48 | 287 | 0.0 | 0.0 | 0.02 | 0.00 | 0.02 | 94 | 1023.0 |
| 20260906113322 | 48 | 15 | 0.0 | 0.0 | 0.01 | 0.00 | 0.01 | 94 | 1023.0 |
| 20260906112822 | 48 | 7 | 0.0 | 0.0 | 0.01 | 0.00 | 0.01 | 95 | 1023.0 |
| 20260906112322 | 48 | 13 | 0.0 | 0.0 | 0.01 | 0.00 | 0.01 | 95 | 1023.0 |
| 20260906111824 | 48 | 17 | 0.0 | 0.0 | 0.01 | 0.00 | 0.01 | 94 | 1023.0 |
| 20260906111323 | 48 | 23 | 0.0 | 0.0 | 0.01 | 0.00 | 0.01 | 94 | 1023.0 |
| 20260906110822 | 48 | 231 | 0.0 | 0.0 | 0.01 | 0.00 | 0.01 | 94 | 1024.0 |
| 20260906110322 | 48 | 10 | 0.0 | 0.0 | 0.01 | 0.00 | 0.01 | 95 | 1023.0 |
| 20260906105822 | 48 | 321 | 0.0 | 0.0 | 0.01 | 0.00 | 0.01 | 94 | 1024.0 |
| 20260906105322 | 48 | 292 | 0.0 | 2.0 | 0.01 | 0.00 | 0.01 | 94 | 1024.0 |
| 20260906104822 | 48 | 250 | 3.0 | 3.0 | 0.01 | 0.00 | 0.01 | 94 | 1024.0 |
| 20260906104322 | 48 | 304 | 2.0 | 3.0 | 0.00 | 0.00 | 0.00 | 95 | 1024.0 |
| 20260906103822 | 48 | 307 | 1.0 | 1.0 | 0.00 | 0.00 | 0.00 | 95 | 1024.0 |
| 20260906103322 | 48 | 346 | 2.0 | 2.0 | 0.00 | 0.00 | 0.00 | 95 | 1023.0 |
| 20260906102822 | 49 | 321 | 2.0 | 2.0 | 0.00 | 0.00 | 0.00 | 95 | 1024.0 |
| 20260906102323 | 48 | 24 | 0.0 | 0.0 | 0.00 | 0.00 | 0.00 | 95 | 1023.0 |
| 20260906101823 | 48 | 184 | 1.0 | 2.0 | 0.00 | 0.00 | 0.00 | 95 | 1023.0 |
| 20260906101322 | 48 | 1 | 0.0 | 0.0 | 0.00 | 0.00 | 0.00 | 95 | 1023.0 |
| 20260906100822 | 48 | 6 | 0.0 | 0.0 | 0.00 | 0.00 | 0.00 | 95 | 1023.0 |
| 20260906100322 | 48 | 326 | 0.0 | 0.0 | 0.00 | 0.00 | 0.00 | 95 | 1023.0 |
| 20260906095822 | 48 | 8 | 0.0 | 0.0 | 0.00 | 0.00 | 0.00 | 95 | 1023.0 |
| 20260906095321 | 48 | 4 | 0.0 | 0.0 | 0.00 | 0.00 | 0.00 | 95 | 1023.0 |
| 20260906094822 | 48 | 8 | 0.0 | 0.0 | 0.00 | 0.00 | 0.00 | 95 | 1023.0 |
| 20260906094323 | 49 | 31 | 0.0 | 0.0 | 0.00 | 0.00 | 0.00 | 95 | 1023.0 |
| 20260906093822 | 49 | 40 | 0.0 | 0.0 | 0.00 | 0.00 | 0.00 | 94 | 1023.0 |
| 20260906093322 | 49 | 295 | 0.0 | 0.0 | 0.00 | 0.00 | 0.00 | 95 | 1024.0 |
| 20260906092822 | 49 | 233 | 1.0 | 2.0 | 0.00 | 0.00 | 0.00 | 95 | 1024.0 |
| 20260906092322 | 49 | 323 | 0.0 | 2.0 | 0.00 | 0.00 | 0.00 | 95 | 1024.0 |
| 20260906091823 | 49 | 7 | 0.0 | 0.0 | 0.00 | 0.00 | 0.00 | 95 | 1024.0 |
| 20260906091322 | 49 | 7 | 0.0 | 0.0 | 0.00 | 0.00 | 0.00 | 95 | 1023.0 |
| 20260906090823 | 49 | 304 | 0.0 | 0.0 | 0.00 | 0.00 | 0.00 | 94 | 1023.0 |
| 20260906090326 | 49 | 351 | 0.0 | 0.0 | 0.00 | 0.00 | 0.00 | 94 | 1023.0 |
| 20260906085822 | 49 | 18 | 0.0 | 0.0 | 0.00 | 0.00 | 0.00 | 94 | 1024.0 |
| 20260906085322 | 49 | 18 | 0.0 | 0.0 | 0.00 | 0.00 | 0.00 | 94 | 1024.0 |
| 20260906084822 | 49 | 17 | 0.0 | 0.0 | 0.00 | 0.00 | 0.00 | 94 | 1024.0 |
| 20260906084322 | 49 | 18 | 0.0 | 0.0 | 0.00 | 0.00 | 0.00 | 94 | 1024.0 |
| 20260906083822 | 49 | 359 | 0.0 | 0.0 | 0.00 | 0.00 | 0.00 | 94 | 1024.0 |
| 20260906083322 | 49 | 8 | 0.0 | 0.0 | 0.00 | 0.00 | 0.00 | 94 | 1024.0 |
| 20260906082823 | 49 | 16 | 0.0 | 0.0 | 0.00 | 0.00 | 0.00 | 94 | 1024.0 |
| 20260906082322 | 49 | 12 | 0.0 | 0.0 | 0.00 | 0.00 | 0.00 | 94 | 1024.0 |
| 20260906081822 | 49 | 8 | 0.0 | 0.0 | 0.00 | 0.00 | 0.00 | 94 | 1024.0 |
| 20260906081329 | 49 | 5 | 0.0 | 0.0 | 0.00 | 0.00 | 0.00 | 94 | 1024.0 |
| 20260906080822 | 49 | 355 | 0.0 | 0.0 | 0.00 | 0.00 | 0.00 | 94 | 1024.0 |
| 20260906080322 | 49 | 22 | 0.0 | 0.0 | 0.00 | 0.00 | 0.00 | 94 | 1025.0 |
| 20260906075823 | 49 | 348 | 0.0 | 0.0 | 0.00 | 0.00 | 0.00 | 94 | 1025.0 |
| 20260906075322 | 49 | 23 | 0.0 | 0.0 | 0.00 | 0.00 | 0.00 | 94 | 1025.0 |
| 20260906074822 | 49 | 22 | 0.0 | 0.0 | 0.00 | 0.00 | 0.00 | 94 | 1024.0 |
| 20260906074322 | 49 | 29 | 0.0 | 0.0 | 0.00 | 0.00 | 0.00 | 94 | 1024.0 |
| 20260906073822 | 49 | 352 | 0.0 | 0.0 | 0.00 | 0.00 | 0.00 | 94 | 1024.0 |
| 20260906073322 | 50 | 7 | 0.0 | 0.0 | 0.00 | 0.00 | 0.00 | 94 | 1024.0 |
| 20260906072823 | 50 | 22 | 0.0 | 0.0 | 0.00 | 0.00 | 0.00 | 94 | 1024.0 |
| 20260906072322 | 50 | 17 | 0.0 | 0.0 | 0.00 | 0.00 | 0.00 | 94 | 1024.0 |
| 20260906071822 | 50 | 288 | 2.0 | 2.0 | 0.00 | 0.00 | 0.00 | 94 | 1024.0 |
| 20260906071322 | 50 | 358 | 0.0 | 0.0 | 0.00 | 0.00 | 0.00 | 94 | 1024.0 |
| 20260906070822 | 50 | 344 | 0.0 | 0.0 | 0.00 | 0.00 | 0.00 | 94 | 1025.0 |
| 20260906070322 | 50 | 18 | 0.0 | 0.0 | 0.00 | 0.00 | 0.00 | 94 | 1025.0 |
| 20260906065822 | 50 | 7 | 0.0 | 0.0 | 0.00 | 0.00 | 0.00 | 94 | 1025.0 |
| 20260906065322 | 50 | 26 | 0.0 | 0.0 | 0.00 | 0.00 | 0.00 | 94 | 1025.0 |
| 20260906064822 | 50 | 19 | 0.0 | 0.0 | 0.00 | 0.00 | 0.00 | 94 | 1025.0 |
| 20260906064322 | 50 | 19 | 0.0 | 0.0 | 0.00 | 0.00 | 0.00 | 94 | 1025.0 |
| 20260906063822 | 50 | 18 | 0.0 | 0.0 | 0.00 | 0.00 | 0.00 | 94 | 1025.0 |
| 20260906063322 | 50 | 22 | 0.0 | 0.0 | 0.00 | 0.00 | 0.00 | 94 | 1025.0 |
| 20260906062823 | 50 | 343 | 0.0 | 0.0 | 0.00 | 0.00 | 0.00 | 94 | 1025.0 |
| 20260906062323 | 50 | 9 | 0.0 | 0.0 | 0.00 | 0.00 | 0.00 | 94 | 1025.0 |
| 20260906061822 | 50 | 4 | 0.0 | 0.0 | 0.00 | 0.00 | 0.00 | 94 | 1025.0 |
| 20260906061322 | 50 | 341 | 0.0 | 0.0 | 0.00 | 0.00 | 0.00 | 94 | 1025.0 |
| 20260906060822 | 50 | 46 | 0.0 | 0.0 | 0.00 | 0.00 | 0.00 | 94 | 1025.0 |
| 20260906060322 | 50 | 295 | 0.0 | 0.0 | 0.00 | 0.00 | 0.00 | 94 | 1025.0 |
| 20260906055823 | 50 | 13 | 0.0 | 0.0 | 0.00 | 0.00 | 0.16 | 94 | 1025.0 |
| 20260906055322 | 50 | 9 | 0.0 | 0.0 | 0.00 | 0.00 | 0.16 | 94 | 1025.0 |
| 20260906054822 | 50 | 10 | 0.0 | 0.0 | 0.00 | 0.00 | 0.16 | 94 | 1025.0 |
| 20260906054322 | 50 | 5 | 0.0 | 0.0 | 0.00 | 0.00 | 0.16 | 94 | 1025.0 |
| 20260906053822 | 50 | 352 | 0.0 | 0.0 | 0.00 | 0.00 | 0.16 | 94 | 1025.0 |
| 20260906053322 | 50 | 359 | 0.0 | 1.0 | 0.00 | 0.00 | 0.16 | 94 | 1025.0 |
| 20260906052822 | 50 | 289 | 1.0 | 1.0 | 0.00 | 0.00 | 0.16 | 94 | 1025.0 |
| 20260906052322 | 50 | 340 | 1.0 | 2.0 | 0.00 | 0.00 | 0.16 | 94 | 1025.0 |
| 20260906051822 | 50 | 347 | 0.0 | 0.0 | 0.00 | 0.00 | 0.16 | 94 | 1025.0 |
| 20260906051323 | 50 | 13 | 0.0 | 0.0 | 0.00 | 0.00 | 0.16 | 94 | 1025.0 |
| 20260906050822 | 51 | 296 | 0.0 | 0.0 | 0.00 | 0.00 | 0.16 | 94 | 1025.0 |
| 20260906050323 | 51 | 307 | 3.0 | 3.0 | 0.00 | 0.00 | 0.16 | 94 | 1025.0 |
| 20260906045822 | 51 | 353 | 0.0 | 0.0 | 0.00 | 0.00 | 0.16 | 94 | 1025.0 |
| 20260906045322 | 51 | 355 | 0.0 | 0.0 | 0.00 | 0.00 | 0.16 | 94 | 1025.0 |
| 20260906044822 | 51 | 4 | 0.0 | 0.0 | 0.00 | 0.00 | 0.16 | 94 | 1025.0 |
| 20260906044322 | 51 | 12 | 0.0 | 0.0 | 0.00 | 0.00 | 0.16 | 94 | 1025.0 |
| 20260906043822 | 51 | 12 | 0.0 | 0.0 | 0.00 | 0.00 | 0.16 | 94 | 1025.0 |
| 20260906043323 | 51 | 357 | 0.0 | 0.0 | 0.00 | 0.00 | 0.16 | 94 | 1025.0 |
| 20260906042822 | 51 | 357 | 0.0 | 0.0 | 0.00 | 0.00 | 0.16 | 94 | 1025.0 |
| 20260906042322 | 51 | 335 | 0.0 | 0.0 | 0.00 | 0.00 | 0.16 | 94 | 1025.0 |
| 20260906041822 | 51 | 5 | 0.0 | 0.0 | 0.00 | 0.00 | 0.16 | 94 | 1025.0 |
| 20260906041323 | 51 | 9 | 0.0 | 0.0 | 0.00 | 0.00 | 0.16 | 94 | 1025.0 |
| 20260906040823 | 51 | 78 | 0.0 | 0.0 | 0.00 | 0.00 | 0.16 | 94 | 1025.0 |
| 20260906040322 | 51 | 348 | 0.0 | 0.0 | 0.00 | 0.00 | 0.16 | 94 | 1025.0 |
| 20260906035822 | 51 | 6 | 0.0 | 0.0 | 0.00 | 0.00 | 0.16 | 94 | 1025.0 |
| 20260906035322 | 51 | 13 | 0.0 | 0.0 | 0.00 | 0.00 | 0.16 | 94 | 1025.0 |
| 20260906034822 | 51 | 16 | 0.0 | 0.0 | 0.00 | 0.00 | 0.16 | 94 | 1025.0 |
| 20260906034322 | 51 | 15 | 0.0 | 0.0 | 0.00 | 0.00 | 0.16 | 94 | 1025.0 |
| 20260906033823 | 51 | 21 | 0.0 | 0.0 | 0.00 | 0.00 | 0.16 | 94 | 1024.0 |
| 20260906033322 | 51 | 13 | 0.0 | 0.0 | 0.00 | 0.00 | 0.16 | 94 | 1024.0 |
| 20260906032822 | 51 | 19 | 0.0 | 0.0 | 0.00 | 0.00 | 0.16 | 94 | 1024.0 |
| 20260906032322 | 51 | 18 | 0.0 | 0.0 | 0.00 | 0.00 | 0.16 | 94 | 1024.0 |
| 20260906031822 | 51 | 21 | 0.0 | 0.0 | 0.00 | 0.00 | 0.16 | 94 | 1024.0 |
| 20260906031322 | 51 | 36 | 0.0 | 0.0 | 0.00 | 0.00 | 0.16 | 94 | 1024.0 |
| 20260906030822 | 51 | 20 | 0.0 | 0.0 | 0.00 | 0.00 | 0.16 | 94 | 1024.0 |
| 20260906030325 | 51 | 31 | 0.0 | 0.0 | 0.00 | 0.00 | 0.16 | 94 | 1024.0 |
| 20260906025822 | 51 | 14 | 0.0 | 0.0 | 0.00 | 0.00 | 0.16 | 94 | 1024.0 |
| 20260906025323 | 51 | 32 | 0.0 | 0.0 | 0.00 | 0.00 | 0.16 | 94 | 1024.0 |
| 20260906024822 | 51 | 15 | 0.0 | 0.0 | 0.00 | 0.00 | 0.16 | 94 | 1024.0 |
| 20260906024322 | 50 | 12 | 0.0 | 0.0 | 0.00 | 0.00 | 0.16 | 94 | 1024.0 |
| 20260906023822 | 50 | 359 | 0.0 | 0.0 | 0.00 | 0.00 | 0.16 | 94 | 1024.0 |
| 20260906023322 | 50 | 16 | 0.0 | 0.0 | 0.00 | 0.00 | 0.16 | 93 | 1024.0 |
| 20260906022823 | 50 | 8 | 0.0 | 0.0 | 0.00 | 0.00 | 0.16 | 93 | 1024.0 |
| 20260906022322 | 51 | 1 | 0.0 | 0.0 | 0.00 | 0.00 | 0.16 | 93 | 1024.0 |
| 20260906021822 | 51 | 42 | 0.0 | 0.0 | 0.00 | 0.00 | 0.16 | 93 | 1024.0 |
| 20260906021323 | 51 | 56 | 0.0 | 0.0 | 0.00 | 0.00 | 0.16 | 93 | 1024.0 |
| 20260906020823 | 51 | 27 | 0.0 | 0.0 | 0.00 | 0.00 | 0.16 | 93 | 1024.0 |
| 20260906020322 | 51 | 67 | 0.0 | 0.0 | 0.00 | 0.00 | 0.16 | 93 | 1024.0 |
| 20260906015823 | 51 | 354 | 0.0 | 0.0 | 0.00 | 0.00 | 0.16 | 93 | 1024.0 |
| 20260906015322 | 51 | 21 | 0.0 | 1.0 | 0.00 | 0.00 | 0.16 | 93 | 1024.0 |
| 20260906014823 | 51 | 15 | 1.0 | 1.0 | 0.00 | 0.00 | 0.16 | 93 | 1024.0 |
| 20260906014322 | 51 | 49 | 0.0 | 0.0 | 0.00 | 0.00 | 0.16 | 93 | 1024.0 |
| 20260906013824 | 51 | 22 | 0.0 | 0.0 | 0.00 | 0.00 | 0.16 | 93 | 1024.0 |
| 20260906013323 | 51 | 8 | 0.0 | 0.0 | 0.00 | 0.00 | 0.16 | 93 | 1024.0 |
| 20260906012823 | 51 | 18 | 0.0 | 0.0 | 0.00 | 0.00 | 0.16 | 93 | 1024.0 |
| 20260906012322 | 51 | 5 | 0.0 | 0.0 | 0.00 | 0.00 | 0.16 | 93 | 1024.0 |
| 20260906011822 | 51 | 5 | 0.0 | 0.0 | 0.00 | 0.00 | 0.16 | 93 | 1024.0 |
| 20260906011322 | 51 | 32 | 0.0 | 0.0 | 0.00 | 0.00 | 0.16 | 93 | 1024.0 |
| 20260906010823 | 51 | 17 | 0.0 | 0.0 | 0.00 | 0.00 | 0.16 | 93 | 1024.0 |
| 20260906010322 | 51 | 10 | 0.0 | 0.0 | 0.00 | 0.00 | 0.16 | 93 | 1024.0 |
| 20260906005822 | 51 | 37 | 0.0 | 0.0 | 0.00 | 0.00 | 0.16 | 93 | 1024.0 |
| 20260906005322 | 51 | 19 | 0.0 | 0.0 | 0.00 | 0.00 | 0.16 | 93 | 1024.0 |
| 20260906004822 | 51 | 11 | 3.0 | 3.0 | 0.00 | 0.00 | 0.16 | 93 | 1024.0 |
| 20260906004322 | 51 | 45 | 4.0 | 4.0 | 0.02 | 0.00 | 0.16 | 93 | 1024.0 |
| 20260906003822 | 51 | 49 | 2.0 | 2.0 | 0.02 | 0.00 | 0.16 | 93 | 1024.0 |
| 20260906003323 | 51 | 20 | 0.0 | 0.0 | 0.02 | 0.00 | 0.16 | 93 | 1024.0 |
| 20260906002823 | 51 | 38 | 3.0 | 3.0 | 0.02 | 0.00 | 0.16 | 93 | 1024.0 |
| 20260906002322 | 51 | 36 | 2.0 | 2.0 | 0.02 | 0.00 | 0.16 | 93 | 1024.0 |
| 20260906001823 | 51 | 19 | 0.0 | 0.0 | 0.02 | 0.00 | 0.16 | 93 | 1024.0 |
| 20260906001322 | 51 | 26 | 0.0 | 2.0 | 0.02 | 0.00 | 0.16 | 93 | 1024.0 |
| 20260906000822 | 51 | 11 | 1.0 | 2.0 | 0.02 | 0.00 | 0.16 | 93 | 1024.0 |
| 20260906000322 | 51 | 16 | 3.0 | 3.0 | 0.02 | 0.00 | 0.16 | 93 | 1024.0 |
| 20260905235822 | 51 | 20 | 2.0 | 2.0 | 0.02 | 0.00 | 0.16 | 93 | 1024.0 |
| 20260905235322 | 51 | 16 | 3.0 | 4.0 | 0.03 | 0.00 | 0.16 | 93 | 1024.0 |
| 20260905234822 | 51 | 24 | 1.0 | 1.0 | 0.02 | 0.00 | 0.15 | 93 | 1024.0 |
| 20260905234322 | 51 | 39 | 3.0 | 3.0 | 0.01 | 0.00 | 0.14 | 93 | 1024.0 |